createdAt,value
2018-06-23T00:00:05.179Z,27.7
2018-06-23T00:00:55.484Z,27.7
2018-06-23T00:01:45.341Z,27.7
2018-06-23T00:02:35.443Z,27.7
2018-06-23T00:03:25.706Z,27.7
2018-06-23T00:04:15.811Z,27.7
2018-06-23T00:05:05.531Z,27.7
2018-06-23T00:05:55.643Z,27.7
2018-06-23T00:06:45.105Z,27.7
2018-06-23T00:07:35.484Z,27.7
2018-06-23T00:08:25.814Z,27.7
2018-06-23T00:09:16.143Z,27.7
2018-06-23T00:10:06.198Z,27.7
2018-06-23T00:10:56.018Z,27.7
2018-06-23T00:11:46.312Z,27.8
2018-06-23T00:12:35.815Z,27.7
2018-06-23T00:13:25.919Z,27.7
2018-06-23T00:14:15.690Z,27.7
2018-06-23T00:15:06.017Z,27.8
2018-06-23T00:15:56.412Z,27.7
2018-06-23T00:16:46.449Z,27.7
2018-06-23T00:17:36.777Z,27.8
2018-06-23T00:18:25.737Z,27.7
2018-06-23T00:19:16.674Z,27.7
2018-06-23T00:20:06.737Z,27.7
2018-06-23T00:20:56.477Z,27.7
2018-06-23T00:21:46.849Z,27.7
2018-06-23T00:22:36.896Z,27.7
2018-06-23T00:23:26.114Z,27.7
2018-06-23T00:24:17.041Z,27.8
2018-06-23T00:25:06.814Z,27.7
2018-06-23T00:25:57.154Z,27.8
2018-06-23T00:26:46.627Z,27.8
2018-06-23T00:27:36.727Z,27.8
2018-06-23T00:28:27.362Z,27.8
2018-06-23T00:29:17.405Z,27.8
2018-06-23T00:30:07.172Z,27.8
2018-06-23T00:30:57.506Z,27.8
2018-06-23T00:31:47.646Z,27.8
2018-06-23T00:32:37.356Z,27.8
2018-06-23T00:33:26.875Z,27.8
2018-06-23T00:34:17.495Z,27.8
2018-06-23T00:35:07.832Z,27.8
2018-06-23T00:35:58.174Z,27.8
2018-06-23T00:36:48.273Z,27.8
2018-06-23T00:37:38.038Z,27.8
2018-06-23T00:38:27.822Z,27.8
2018-06-23T00:39:18.185Z,27.8
2018-06-23T00:40:08.500Z,27.8
2018-06-23T00:40:57.732Z,27.8
2018-06-23T00:41:48.053Z,27.8
2018-06-23T00:42:38.404Z,27.8
2018-06-23T00:43:28.175Z,27.8
2018-06-23T00:44:18.839Z,27.8
2018-06-23T00:45:08.879Z,27.8
2018-06-23T00:45:58.936Z,27.8
2018-06-23T00:46:48.977Z,27.8
2018-06-23T00:47:38.822Z,27.8
2018-06-23T00:48:28.557Z,27.8
2018-06-23T00:49:18.645Z,27.8
2018-06-23T00:50:08.684Z,27.8
2018-06-23T00:50:58.769Z,27.8
2018-06-23T00:51:48.535Z,27.8
2018-06-23T00:52:39.187Z,27.8
2018-06-23T00:53:28.944Z,27.8
2018-06-23T00:54:19.422Z,27.8
2018-06-23T00:55:09.650Z,27.8
2018-06-23T00:57:39.830Z,27.8
2018-06-23T00:59:19.723Z,27.8
2018-06-23T01:01:00.093Z,27.8
2018-06-23T01:01:50.141Z,27.8
2018-06-23T01:03:29.711Z,27.8
2018-06-23T01:04:20.306Z,27.8
2018-06-23T01:05:59.628Z,27.8
2018-06-23T01:06:50.225Z,27.8
2018-06-23T01:11:00.043Z,27.8
2018-06-23T01:14:20.621Z,27.8
2018-06-23T01:16:01.241Z,27.8
2018-06-23T01:16:50.750Z,27.8
2018-06-23T01:51:53.730Z,27.9
2018-06-23T01:55:13.960Z,27.9
2018-06-23T01:56:04.002Z,27.9
2018-06-23T01:57:44.458Z,27.9
2018-06-23T01:58:33.493Z,27.9
2018-06-23T02:02:44.867Z,27.9
2018-06-23T02:03:34.897Z,27.9
2018-06-23T02:08:34.988Z,27.9
2018-06-23T02:11:55.258Z,27.9
2018-06-23T02:13:35.373Z,27.9
2018-06-23T02:14:25.725Z,27.9
2018-06-23T02:15:14.356Z,27.9
2018-06-23T02:16:04.714Z,27.9
2018-06-23T02:16:55.563Z,27.9
2018-06-23T02:17:45.686Z,27.9
2018-06-23T02:18:36.005Z,27.9
2018-06-23T02:21:55.424Z,27.9
2018-06-23T02:22:46.347Z,27.9
2018-06-23T02:23:35.809Z,27.9
2018-06-23T02:25:16.228Z,27.9
2018-06-23T02:26:06.005Z,27.9
2018-06-23T02:26:56.667Z,27.9
2018-06-23T02:27:46.415Z,27.9
2018-06-23T02:30:15.789Z,27.9
2018-06-23T02:31:56.480Z,27.9
2018-06-23T02:32:46.254Z,27.9
2018-06-23T02:33:37.210Z,27.9
2018-06-23T02:34:26.670Z,27.9
2018-06-23T02:35:17.062Z,27.9
2018-06-23T02:36:06.774Z,27.9
2018-06-23T02:37:47.272Z,27.9
2018-06-23T02:38:37.266Z,27.9
2018-06-23T02:40:17.117Z,27.9
2018-06-23T02:41:06.886Z,27.9
2018-06-23T02:41:57.523Z,27.9
2018-06-23T02:42:47.850Z,27.9
2018-06-23T02:44:27.390Z,27.9
2018-06-23T02:45:18.045Z,27.9
2018-06-23T02:46:07.848Z,27.9
2018-06-23T02:46:57.691Z,27.9
2018-06-23T02:47:47.691Z,27.9
2018-06-23T02:49:28.372Z,27.9
2018-06-23T02:50:18.420Z,27.9
2018-06-23T02:51:57.688Z,27.9
2018-06-23T02:53:37.832Z,27.9
2018-06-23T02:54:28.767Z,27.9
2018-06-23T02:55:18.564Z,27.9
2018-06-23T02:56:08.351Z,27.9
2018-06-23T02:59:28.307Z,27.9
2018-06-23T03:00:18.932Z,27.9
2018-06-23T03:01:08.557Z,27.9
2018-06-23T03:01:58.730Z,27.9
2018-06-23T03:03:38.848Z,27.9
2018-06-23T03:06:09.416Z,27.9
2018-06-23T03:07:49.770Z,27.9
2018-06-23T03:11:59.594Z,27.9
2018-06-23T03:15:20.059Z,27.9
2018-06-23T03:23:40.646Z,27.8
2018-06-23T03:42:52.355Z,27.8
2018-06-23T04:16:14.873Z,27.8
2018-06-23T04:17:04.985Z,27.8
2018-06-23T04:22:05.062Z,27.8
2018-06-23T04:26:15.383Z,27.8
2018-06-23T04:27:05.416Z,27.8
2018-06-23T04:27:55.749Z,27.8
2018-06-23T04:28:45.494Z,27.8
2018-06-23T04:32:06.101Z,27.8
2018-06-23T04:32:55.834Z,27.8
2018-06-23T04:34:36.006Z,27.8
2018-06-23T04:35:25.557Z,27.8
2018-06-23T04:36:15.904Z,27.8
2018-06-23T04:37:05.960Z,27.8
2018-06-23T04:38:45.887Z,27.8
2018-06-23T04:39:35.037Z,27.8
2018-06-23T04:41:16.726Z,27.8
2018-06-23T04:42:06.856Z,27.8
2018-06-23T04:42:56.695Z,27.8
2018-06-23T04:43:46.125Z,27.8
2018-06-23T04:44:36.839Z,27.8
2018-06-23T04:45:26.508Z,27.8
2018-06-23T04:46:17.132Z,27.8
2018-06-23T04:47:06.930Z,27.8
2018-06-23T04:47:56.673Z,27.8
2018-06-23T04:48:47.335Z,27.8
2018-06-23T04:49:36.849Z,27.8
2018-06-23T04:50:26.875Z,27.8
2018-06-23T04:51:17.260Z,27.8
2018-06-23T04:52:06.976Z,27.8
2018-06-23T04:52:57.366Z,27.8
2018-06-23T04:53:47.127Z,27.8
2018-06-23T04:54:37.505Z,27.8
2018-06-23T04:55:27.533Z,27.8
2018-06-23T04:56:17.867Z,27.8
2018-06-23T04:57:07.380Z,27.8
2018-06-23T04:57:58.303Z,27.8
2018-06-23T04:58:47.549Z,27.8
2018-06-23T04:59:38.183Z,27.8
2018-06-23T05:00:28.490Z,27.8
2018-06-23T05:01:18.021Z,27.8
2018-06-23T05:02:08.292Z,27.8
2018-06-23T05:02:57.808Z,27.8
2018-06-23T05:03:48.160Z,27.8
2018-06-23T05:04:37.121Z,27.8
2018-06-23T05:05:28.310Z,27.8
2018-06-23T05:06:17.597Z,27.8
2018-06-23T05:07:07.942Z,27.8
2018-06-23T05:07:58.245Z,27.8
2018-06-23T05:08:48.454Z,27.8
2018-06-23T05:09:38.396Z,27.8
2018-06-23T05:10:27.338Z,27.8
2018-06-23T05:11:17.968Z,27.8
2018-06-23T05:12:08.550Z,27.8
2018-06-23T05:12:58.320Z,27.8
2018-06-23T05:13:48.655Z,27.8
2018-06-23T05:16:19.415Z,27.8
2018-06-23T05:17:09.181Z,27.8
2018-06-23T05:17:59.257Z,27.8
2018-06-23T05:21:19.771Z,27.8
2018-06-23T05:26:19.657Z,27.8
2018-06-23T05:27:59.990Z,27.8
2018-06-23T05:49:41.925Z,27.8
2018-06-23T05:50:31.421Z,27.8
2018-06-23T05:51:22.576Z,27.7
2018-06-23T05:52:11.870Z,27.6
2018-06-23T05:53:01.862Z,27.6
2018-06-23T05:53:52.250Z,27.6
2018-06-23T05:54:41.712Z,27.6
2018-06-23T05:55:32.108Z,27.5
2018-06-23T05:56:22.473Z,27.5
2018-06-23T05:57:12.481Z,27.4
2018-06-23T05:58:01.412Z,27.4
2018-06-23T05:58:52.590Z,27.4
2018-06-23T05:59:42.719Z,27.4
2018-06-23T06:00:32.427Z,27.4
2018-06-23T06:01:22.218Z,27.4
2018-06-23T06:02:12.901Z,27.4
2018-06-23T06:03:02.908Z,27.4
2018-06-23T06:03:53.002Z,27.4
2018-06-23T06:04:42.865Z,27.4
2018-06-23T06:05:32.545Z,27.4
2018-06-23T06:06:23.189Z,27.4
2018-06-23T06:07:13.515Z,27.4
2018-06-23T06:08:03.291Z,27.4
2018-06-23T06:08:53.359Z,27.4
2018-06-23T06:09:43.435Z,27.3
2018-06-23T06:10:32.636Z,27.3
2018-06-23T06:11:23.255Z,27.3
2018-06-23T06:12:13.374Z,27.4
2018-06-23T06:13:03.431Z,27.4
2018-06-23T06:13:53.774Z,27.3
2018-06-23T06:14:43.508Z,27.3
2018-06-23T06:15:33.621Z,27.4
2018-06-23T06:16:23.626Z,27.4
2018-06-23T06:17:13.971Z,27.4
2018-06-23T06:18:03.773Z,27.4
2018-06-23T06:18:54.100Z,27.4
2018-06-23T06:19:44.147Z,27.4
2018-06-23T06:20:33.975Z,27.4
2018-06-23T06:21:24.002Z,27.4
2018-06-23T06:22:13.540Z,27.4
2018-06-23T06:23:03.875Z,27.4
2018-06-23T06:23:55.704Z,27.4
2018-06-23T06:24:44.231Z,27.5
2018-06-23T06:25:33.500Z,27.5
2018-06-23T06:26:24.379Z,27.5
2018-06-23T06:27:14.748Z,27.5
2018-06-23T06:28:04.501Z,27.5
2018-06-23T06:28:54.671Z,27.5
2018-06-23T06:29:43.836Z,27.5
2018-06-23T06:30:35.000Z,27.5
2018-06-23T06:31:25.046Z,27.5
2018-06-23T06:32:14.839Z,27.5
2018-06-23T06:33:04.631Z,27.5
2018-06-23T06:33:54.690Z,27.5
2018-06-23T06:34:45.342Z,27.5
2018-06-23T06:35:35.444Z,27.4
2018-06-23T06:36:25.158Z,27.4
2018-06-23T06:37:15.242Z,27.4
2018-06-23T06:38:04.763Z,27.4
2018-06-23T06:38:55.683Z,27.5
2018-06-23T06:39:45.662Z,27.5
2018-06-23T06:40:35.801Z,27.4
2018-06-23T06:41:25.782Z,27.4
2018-06-23T06:42:15.584Z,27.4
2018-06-23T06:43:05.682Z,27.4
2018-06-23T06:43:55.472Z,27.4
2018-06-23T06:44:45.938Z,27.4
2018-06-23T06:45:35.608Z,27.4
2018-06-23T06:46:25.404Z,27.4
2018-06-23T06:47:15.232Z,27.4
2018-06-23T06:48:05.769Z,27.3
2018-06-23T06:48:56.082Z,27.3
2018-06-23T06:49:45.348Z,27.3
2018-06-23T06:50:35.996Z,27.3
2018-06-23T06:51:26.032Z,27.3
2018-06-23T06:52:16.428Z,27.3
2018-06-23T06:53:06.426Z,27.3
2018-06-23T06:53:56.744Z,27.3
2018-06-23T06:54:46.856Z,27.3
2018-06-23T06:55:36.872Z,27.3
2018-06-23T06:56:26.730Z,27.3
2018-06-23T06:57:17.950Z,27.3
2018-06-23T06:58:06.778Z,27.3
2018-06-23T06:58:57.114Z,27.3
2018-06-23T06:59:46.434Z,27.3
2018-06-23T07:00:36.711Z,27.2
2018-06-23T07:01:26.788Z,27.3
2018-06-23T07:02:16.849Z,27.3
2018-06-23T07:03:06.906Z,27.2
2018-06-23T07:03:57.240Z,27.2
2018-06-23T07:04:47.580Z,27.3
2018-06-23T07:05:37.663Z,27.2
2018-06-23T07:06:26.877Z,27.2
2018-06-23T07:07:17.781Z,27.3
2018-06-23T07:08:07.835Z,27.2
2018-06-23T07:08:58.421Z,27.2
2018-06-23T07:09:47.742Z,27.2
2018-06-23T07:10:37.490Z,27.2
2018-06-23T07:11:27.253Z,27.2
2018-06-23T07:12:18.177Z,27.2
2018-06-23T07:13:08.214Z,27.2
2018-06-23T07:13:58.266Z,27.2
2018-06-23T07:14:47.788Z,27.2
2018-06-23T07:15:38.716Z,27.2
2018-06-23T07:16:28.452Z,27.2
2018-06-23T07:17:18.552Z,27.2
2018-06-23T07:18:08.606Z,27.2
2018-06-23T07:18:58.644Z,27.2
2018-06-23T07:19:48.113Z,27.2
2018-06-23T07:20:38.459Z,27.2
2018-06-23T07:21:28.812Z,27.3
2018-06-23T07:22:18.372Z,27.2
2018-06-23T07:23:08.927Z,27.3
2018-06-23T07:24:00.103Z,27.3
2018-06-23T07:24:48.845Z,27.3
2018-06-23T07:25:38.009Z,27.3
2018-06-23T07:26:29.187Z,27.3
2018-06-23T07:27:18.761Z,27.3
2018-06-23T07:28:09.042Z,27.3
2018-06-23T07:28:59.357Z,27.3
2018-06-23T07:29:49.159Z,27.3
2018-06-23T07:30:39.647Z,27.3
2018-06-23T07:31:28.988Z,27.3
2018-06-23T07:32:19.386Z,27.3
2018-06-23T07:33:09.424Z,27.3
2018-06-23T07:33:59.194Z,27.3
2018-06-23T07:34:50.735Z,27.3
2018-06-23T07:35:39.038Z,27.3
2018-06-23T07:36:29.978Z,27.3
2018-06-23T07:37:19.769Z,27.3
2018-06-23T07:38:10.046Z,27.3
2018-06-23T07:39:00.122Z,27.3
2018-06-23T07:39:49.917Z,27.3
2018-06-23T07:40:40.654Z,27.9
2018-06-23T07:41:29.779Z,34.2
2018-06-23T07:42:20.158Z,33.2
2018-06-23T07:43:09.928Z,35.9
2018-06-23T07:44:00.278Z,36.7
2018-06-23T07:44:49.768Z,35.8
2018-06-23T07:45:40.119Z,34.3
2018-06-23T07:46:29.630Z,33.3
2018-06-23T07:47:20.925Z,32.8
2018-06-23T07:48:10.825Z,32.4
2018-06-23T07:49:00.596Z,32.2
2018-06-23T07:49:50.918Z,31.9
2018-06-23T07:50:40.833Z,31.8
2018-06-23T07:51:31.085Z,31.6
2018-06-23T07:52:20.863Z,31.4
2018-06-23T07:53:09.816Z,31.3
2018-06-23T07:54:00.390Z,31.2
2018-06-23T07:54:51.053Z,31.1
2018-06-23T07:55:41.133Z,31
2018-06-23T07:56:31.180Z,30.9
2018-06-23T07:57:21.503Z,30.8
2018-06-23T07:58:10.969Z,30.8
2018-06-23T07:59:01.326Z,30.7
2018-06-23T07:59:50.860Z,30.6
2018-06-23T08:00:41.502Z,30.5
2018-06-23T08:01:31.829Z,30.4
2018-06-23T08:02:21.581Z,30.4
2018-06-23T08:03:11.667Z,30.3
2018-06-23T08:04:01.707Z,30.3
2018-06-23T08:04:51.747Z,30.2
2018-06-23T08:05:41.301Z,30.2
2018-06-23T08:06:31.931Z,34.7
2018-06-23T08:07:21.972Z,35.3
2018-06-23T08:08:12.326Z,37.3
2018-06-23T08:09:02.097Z,38
2018-06-23T08:09:51.588Z,37.8
2018-06-23T08:10:42.491Z,37.4
2018-06-23T08:11:32.279Z,36.7
2018-06-23T08:12:22.066Z,35.4
2018-06-23T08:13:12.651Z,34.1
2018-06-23T08:14:02.764Z,33.1
2018-06-23T08:14:52.519Z,33.2
2018-06-23T08:15:42.279Z,36.3
2018-06-23T08:16:32.916Z,37.1
2018-06-23T08:17:22.756Z,38.2
2018-06-23T08:18:13.051Z,38.4
2018-06-23T08:19:02.801Z,38.3
2018-06-23T08:19:52.655Z,38.3
2018-06-23T08:20:42.717Z,38.3
2018-06-23T08:21:33.031Z,38.5
2018-06-23T08:22:23.068Z,38.8
2018-06-23T08:23:12.890Z,39
2018-06-23T08:24:03.033Z,39.2
2018-06-23T08:24:53.671Z,39.3
2018-06-23T08:25:43.370Z,39.4
2018-06-23T08:26:34.917Z,39.5
2018-06-23T08:27:23.732Z,39.6
2018-06-23T08:28:13.319Z,39.6
2018-06-23T08:29:03.560Z,39.7
2018-06-23T08:29:53.997Z,39.9
2018-06-23T08:30:43.698Z,40.1
2018-06-23T08:31:33.836Z,40.3
2018-06-23T08:32:23.806Z,40.3
2018-06-23T08:33:13.875Z,40.4
2018-06-23T08:34:03.938Z,40.4
2018-06-23T08:34:54.265Z,40.1
2018-06-23T08:35:43.802Z,39.9
2018-06-23T08:36:34.139Z,39.9
2018-06-23T08:37:24.320Z,39.6
2018-06-23T08:38:14.245Z,39.5
2018-06-23T08:39:04.643Z,39.6
2018-06-23T08:39:54.673Z,39.7
2018-06-23T08:40:44.431Z,39.8
2018-06-23T08:41:34.772Z,39.8
2018-06-23T08:42:24.573Z,39.8
2018-06-23T08:43:14.906Z,39.7
2018-06-23T08:44:04.976Z,39.7
2018-06-23T08:44:54.766Z,39.8
2018-06-23T08:45:45.105Z,39.8
2018-06-23T08:46:35.154Z,40
2018-06-23T08:47:25.243Z,40.3
2018-06-23T08:48:15.324Z,40.6
2018-06-23T08:49:05.770Z,40.6
2018-06-23T08:49:55.162Z,40.6
2018-06-23T08:50:44.927Z,40.6
2018-06-23T08:51:35.296Z,40.8
2018-06-23T08:52:25.017Z,40.9
2018-06-23T08:53:15.390Z,41.1
2018-06-23T08:54:04.591Z,41.3
2018-06-23T08:54:55.795Z,41.5
2018-06-23T08:55:45.835Z,41.7
2018-06-23T08:56:35.341Z,42
2018-06-23T08:57:25.947Z,42.2
2018-06-23T08:58:15.221Z,42.4
2018-06-23T08:59:05.572Z,42.6
2018-06-23T08:59:55.613Z,42.8
2018-06-23T09:00:46.231Z,42.9
2018-06-23T09:01:36.280Z,43.1
2018-06-23T09:02:26.340Z,43.2
2018-06-23T09:03:15.865Z,43.4
2018-06-23T09:04:06.482Z,43.6
2018-06-23T09:04:56.536Z,43.8
2018-06-23T09:05:46.622Z,43.9
2018-06-23T09:06:36.077Z,44.1
2018-06-23T09:07:25.909Z,44.3
2018-06-23T09:08:16.263Z,44.3
2018-06-23T09:09:06.918Z,44.3
2018-06-23T09:09:56.450Z,44.4
2018-06-23T09:10:45.846Z,44.7
2018-06-23T09:11:37.050Z,44.9
2018-06-23T09:12:27.202Z,44.9
2018-06-23T09:13:16.602Z,45
2018-06-23T09:14:06.947Z,45.2
2018-06-23T09:14:57.057Z,45.4
2018-06-23T09:15:47.340Z,45.4
2018-06-23T09:16:37.464Z,45.4
2018-06-23T09:17:26.977Z,45.5
2018-06-23T09:18:17.018Z,45.5
2018-06-23T09:19:07.061Z,45.5
2018-06-23T09:19:57.705Z,45.6
2018-06-23T09:20:47.722Z,45.7
2018-06-23T09:21:36.953Z,45.9
2018-06-23T09:22:27.386Z,45.9
2018-06-23T09:23:17.196Z,45.9
2018-06-23T09:24:07.988Z,45.9
2018-06-23T09:24:57.313Z,45.9
2018-06-23T09:25:48.218Z,46.1
2018-06-23T09:26:38.222Z,46.3
2018-06-23T09:27:27.937Z,46.3
2018-06-23T09:28:17.728Z,46.4
2018-06-23T09:29:08.051Z,46.4
2018-06-23T09:29:58.159Z,46.4
2018-06-23T09:30:47.664Z,46.5
2018-06-23T09:31:38.271Z,46.8
2018-06-23T09:32:28.617Z,47.1
2018-06-23T09:33:18.707Z,47.4
2018-06-23T09:34:08.480Z,47.6
2018-06-23T09:34:58.226Z,47.6
2018-06-23T09:35:48.898Z,47.8
2018-06-23T09:36:38.147Z,47.8
2018-06-23T09:37:28.717Z,47.8
2018-06-23T09:38:18.513Z,47.9
2018-06-23T09:39:09.109Z,48
2018-06-23T09:39:58.411Z,48
2018-06-23T09:40:48.716Z,47.9
2018-06-23T09:41:38.254Z,48
2018-06-23T09:42:28.546Z,48
2018-06-23T09:43:19.429Z,47.9
2018-06-23T09:44:08.947Z,48
2018-06-23T09:44:58.187Z,48.3
2018-06-23T09:45:50.021Z,48.6
2018-06-23T09:46:39.140Z,48.7
2018-06-23T09:47:29.498Z,48.7
2018-06-23T09:48:19.519Z,48.7
2018-06-23T09:49:09.460Z,48.7
2018-06-23T09:49:59.116Z,48.8
2018-06-23T09:50:49.456Z,49
2018-06-23T09:51:39.247Z,49.2
2018-06-23T09:52:29.598Z,49.4
2018-06-23T09:53:19.073Z,49.4
2018-06-23T09:54:09.728Z,49.4
2018-06-23T09:55:00.051Z,49.4
2018-06-23T09:55:50.287Z,49.3
2018-06-23T09:56:39.933Z,49.3
2018-06-23T09:57:29.674Z,49.4
2018-06-23T09:58:20.343Z,49.5
2018-06-23T09:59:10.634Z,49.6
2018-06-23T10:00:00.694Z,49.7
2018-06-23T10:00:50.244Z,49.8
2018-06-23T10:01:39.999Z,49.9
2018-06-23T10:02:30.354Z,49.9
2018-06-23T10:03:21.669Z,49.9
2018-06-23T10:04:10.501Z,50
2018-06-23T10:05:00.254Z,50.1
2018-06-23T10:05:50.895Z,50.1
2018-06-23T10:06:41.202Z,50.2
2018-06-23T10:07:30.704Z,50.3
2018-06-23T10:08:21.079Z,50.4
2018-06-23T10:09:11.382Z,50.4
2018-06-23T10:10:01.184Z,50.5
2018-06-23T10:10:51.520Z,50.6
2018-06-23T10:11:40.779Z,50.7
2018-06-23T10:12:31.125Z,50.7
2018-06-23T10:13:21.444Z,50.8
2018-06-23T10:14:11.509Z,50.9
2018-06-23T10:15:01.520Z,51.1
2018-06-23T10:15:51.627Z,51.2
2018-06-23T10:16:41.208Z,51.4
2018-06-23T10:17:31.752Z,51.6
2018-06-23T10:18:21.154Z,51.7
2018-06-23T10:19:11.587Z,51.8
2018-06-23T10:20:52.016Z,52
2018-06-23T10:21:42.218Z,52.1
2018-06-23T10:22:32.414Z,52.2
2018-06-23T10:23:22.200Z,52.3
2018-06-23T10:24:11.744Z,52.3
2018-06-23T10:25:02.039Z,52.4
2018-06-23T10:25:52.631Z,52.6
2018-06-23T10:26:42.137Z,52.6
2018-06-23T10:27:33.366Z,52.7
2018-06-23T10:28:22.562Z,52.8
2018-06-23T10:29:12.616Z,52.8
2018-06-23T10:30:02.180Z,52.9
2018-06-23T10:30:52.466Z,53
2018-06-23T10:31:42.797Z,53.1
2018-06-23T10:32:33.145Z,53.1
2018-06-23T10:33:22.909Z,53.2
2018-06-23T10:34:13.298Z,53.3
2018-06-23T10:35:02.541Z,53.4
2018-06-23T10:35:53.419Z,53.5
2018-06-23T10:36:43.190Z,53.5
2018-06-23T10:37:33.515Z,53.6
2018-06-23T10:38:23.376Z,53.6
2018-06-23T10:39:13.420Z,53.7
2018-06-23T10:40:04.766Z,53.8
2018-06-23T10:40:53.220Z,53.8
2018-06-23T10:41:43.840Z,53.8
2018-06-23T10:42:33.918Z,53.9
2018-06-23T10:43:23.696Z,53.9
2018-06-23T10:44:13.251Z,54
2018-06-23T10:45:03.555Z,53.9
2018-06-23T10:45:53.635Z,53.4
2018-06-23T10:46:43.480Z,53.4
2018-06-23T10:47:33.157Z,53.4
2018-06-23T10:48:23.819Z,53.5
2018-06-23T10:49:14.157Z,53.6
2018-06-23T10:50:03.933Z,53.6
2018-06-23T10:50:53.715Z,53.7
2018-06-23T10:51:43.197Z,53.8
2018-06-23T10:52:34.388Z,53.8
2018-06-23T10:53:24.458Z,53.9
2018-06-23T10:54:14.321Z,53.9
2018-06-23T10:55:04.325Z,54
2018-06-23T10:55:54.111Z,54
2018-06-23T10:56:44.693Z,54.1
2018-06-23T10:57:34.790Z,54.1
2018-06-23T10:58:24.838Z,54.2
2018-06-23T10:59:14.704Z,54.3
2018-06-23T11:00:04.700Z,54.3
2018-06-23T11:00:55.277Z,54.4
2018-06-23T11:01:44.791Z,54.5
2018-06-23T11:02:34.829Z,54.6
2018-06-23T11:03:25.196Z,54.6
2018-06-23T11:04:15.275Z,54.7
2018-06-23T11:05:06.606Z,54.8
2018-06-23T11:05:55.711Z,54.8
2018-06-23T11:06:45.529Z,54.8
2018-06-23T11:07:35.251Z,54.9
2018-06-23T11:08:25.577Z,54.9
2018-06-23T11:09:15.908Z,55
2018-06-23T11:10:05.736Z,55.1
2018-06-23T11:10:55.580Z,55.1
2018-06-23T11:11:46.113Z,55.1
2018-06-23T11:12:35.378Z,55.2
2018-06-23T11:13:26.278Z,55.2
2018-06-23T11:14:16.297Z,55.3
2018-06-23T11:15:05.577Z,55.3
2018-06-23T11:15:56.513Z,55.3
2018-06-23T11:16:45.697Z,55.4
2018-06-23T11:17:36.047Z,55.4
2018-06-23T11:18:26.649Z,55.4
2018-06-23T11:19:16.466Z,55.5
2018-06-23T11:20:06.751Z,55.6
2018-06-23T11:20:55.690Z,55.6
2018-06-23T11:21:46.691Z,55.6
2018-06-23T11:22:36.933Z,55.7
2018-06-23T11:23:27.034Z,55.7
2018-06-23T11:24:17.974Z,55.8
2018-06-23T11:25:06.326Z,55.8
2018-06-23T11:25:56.356Z,55.8
2018-06-23T11:26:47.296Z,55.8
2018-06-23T11:27:36.010Z,55.9
2018-06-23T11:28:27.406Z,55.9
2018-06-23T11:29:17.183Z,55.9
2018-06-23T11:30:07.276Z,55.9
2018-06-23T11:30:57.306Z,55.9
2018-06-23T11:31:47.345Z,55.9
2018-06-23T11:32:37.707Z,55.9
2018-06-23T11:33:27.226Z,55.9
2018-06-23T11:34:17.584Z,56
2018-06-23T11:35:07.608Z,56.1
2018-06-23T11:35:57.707Z,56.1
2018-06-23T11:36:48.019Z,56.1
2018-06-23T11:37:37.567Z,56.1
2018-06-23T11:38:27.867Z,56.2
2018-06-23T11:39:18.219Z,56.3
2018-06-23T11:40:08.265Z,56.3
2018-06-23T11:40:57.798Z,56.3
2018-06-23T11:41:47.266Z,56.4
2018-06-23T11:42:38.463Z,56.4
2018-06-23T11:43:28.502Z,56.5
2018-06-23T11:44:18.304Z,56.5
2018-06-23T11:45:08.649Z,56.5
2018-06-23T11:45:58.753Z,56.6
2018-06-23T11:46:48.778Z,56.7
2018-06-23T11:47:38.862Z,56.7
2018-06-23T11:48:28.879Z,56.8
2018-06-23T11:49:18.000Z,56.8
2018-06-23T11:50:08.534Z,56.8
2018-06-23T11:50:58.792Z,56.8
2018-06-23T11:51:49.153Z,56.8
2018-06-23T11:52:39.223Z,56.9
2018-06-23T11:53:29.270Z,56.9
2018-06-23T11:54:19.317Z,56.9
2018-06-23T11:55:09.405Z,56.7
2018-06-23T11:55:58.965Z,56.7
2018-06-23T11:56:49.515Z,56.7
2018-06-23T11:57:39.302Z,56.8
2018-06-23T11:58:28.937Z,56.8
2018-06-23T11:59:19.460Z,56.8
2018-06-23T12:00:09.227Z,56.8
2018-06-23T12:00:59.854Z,56.8
2018-06-23T12:01:50.155Z,56.9
2018-06-23T12:02:39.501Z,56.9
2018-06-23T12:03:29.544Z,56.9
2018-06-23T12:04:20.105Z,56.9
2018-06-23T12:05:09.342Z,57
2018-06-23T12:05:59.682Z,57.1
2018-06-23T12:06:50.017Z,57.1
2018-06-23T12:07:40.083Z,57.1
2018-06-23T12:08:30.131Z,57.2
2018-06-23T12:09:19.999Z,57.2
2018-06-23T12:10:10.529Z,57.2
2018-06-23T12:11:00.369Z,57.3
2018-06-23T12:11:49.905Z,57.3
2018-06-23T12:12:39.719Z,57.3
2018-06-23T12:13:30.047Z,57.3
2018-06-23T12:14:20.633Z,57.3
2018-06-23T12:15:10.911Z,57.3
2018-06-23T12:16:00.558Z,57.4
2018-06-23T12:16:50.324Z,57.4
2018-06-23T12:17:40.376Z,57.4
2018-06-23T12:18:30.599Z,57.4
2018-06-23T12:19:20.476Z,57.4
2018-06-23T12:20:11.804Z,57.4
2018-06-23T12:21:01.350Z,57.4
2018-06-23T12:21:51.436Z,57.4
2018-06-23T12:22:41.236Z,57.5
2018-06-23T12:23:30.308Z,57.6
2018-06-23T12:24:20.850Z,57.5
2018-06-23T12:25:11.226Z,57.5
2018-06-23T12:26:00.791Z,57.6
2018-06-23T12:26:50.809Z,57.6
2018-06-23T12:27:40.833Z,57.6
2018-06-23T12:28:31.213Z,57.6
2018-06-23T12:29:21.268Z,57.6
2018-06-23T12:30:11.016Z,57.6
2018-06-23T12:31:01.677Z,57.6
2018-06-23T12:31:50.891Z,57.6
2018-06-23T12:32:41.776Z,57.6
2018-06-23T12:33:31.554Z,57.6
2018-06-23T12:34:21.413Z,57.7
2018-06-23T12:35:12.194Z,57.7
2018-06-23T12:36:52.307Z,57.7
2018-06-23T12:39:22.233Z,57.7
2018-06-23T12:40:12.534Z,57.7
2018-06-23T12:49:22.957Z,57.7
2018-06-23T12:50:13.399Z,57.7
2018-06-23T12:51:03.085Z,57.7
2018-06-23T12:51:52.873Z,57.7
2018-06-23T12:52:43.795Z,57.7
2018-06-23T12:53:33.268Z,57.6
2018-06-23T12:54:22.795Z,57.6
2018-06-23T12:55:13.481Z,57.6
2018-06-23T12:56:03.475Z,57.3
2018-06-23T12:56:53.534Z,56.5
2018-06-23T12:57:42.838Z,56.1
2018-06-23T12:58:33.915Z,55.9
2018-06-23T12:59:24.269Z,55.7
2018-06-23T13:00:14.342Z,55.6
2018-06-23T13:01:03.886Z,55.6
2018-06-23T13:01:54.182Z,55.4
2018-06-23T13:02:44.256Z,55.3
2018-06-23T13:03:33.769Z,55.3
2018-06-23T13:04:24.686Z,55.3
2018-06-23T13:05:14.823Z,55.3
2018-06-23T13:06:04.251Z,55.3
2018-06-23T13:06:54.835Z,55.3
2018-06-23T13:07:44.632Z,55.3
2018-06-23T13:08:34.690Z,55.3
2018-06-23T13:09:24.763Z,55.4
2018-06-23T13:10:14.252Z,55.4
2018-06-23T13:11:04.886Z,55.4
2018-06-23T13:11:54.688Z,55.4
2018-06-23T13:12:44.259Z,55.4
2018-06-23T13:13:35.076Z,55.4
2018-06-23T13:14:24.916Z,55.4
2018-06-23T13:15:15.818Z,55.4
2018-06-23T13:16:04.718Z,55.4
2018-06-23T13:16:55.609Z,55.4
2018-06-23T13:17:44.834Z,55.4
2018-06-23T13:18:34.100Z,55.4
2018-06-23T13:19:25.821Z,55.4
2018-06-23T13:20:15.573Z,55.4
2018-06-23T13:21:05.634Z,55.4
2018-06-23T13:21:55.971Z,55.4
2018-06-23T13:22:45.773Z,55.4
2018-06-23T13:23:35.293Z,55.4
2018-06-23T13:24:24.783Z,55.4
2018-06-23T13:25:15.662Z,55.4
2018-06-23T13:26:05.215Z,55.3
2018-06-23T13:26:56.097Z,55.4
2018-06-23T13:27:45.031Z,55.3
2018-06-23T13:28:35.670Z,55.3
2018-06-23T13:29:25.983Z,55.3
2018-06-23T13:30:16.323Z,55.3
2018-06-23T13:31:05.851Z,55.3
2018-06-23T13:31:56.733Z,55.3
2018-06-23T13:32:46.251Z,55.2
2018-06-23T13:33:36.636Z,55.2
2018-06-23T13:34:26.393Z,55.1
2018-06-23T13:35:16.453Z,55.1
2018-06-23T13:36:05.913Z,55.1
2018-06-23T13:36:56.578Z,55.1
2018-06-23T13:37:46.343Z,55
2018-06-23T13:38:37.057Z,55
2018-06-23T13:39:27.452Z,54.9
2018-06-23T13:40:17.450Z,54.9
2018-06-23T13:41:07.535Z,54.9
2018-06-23T13:41:57.506Z,54.9
2018-06-23T13:42:47.390Z,54.8
2018-06-23T13:43:36.248Z,54.8
2018-06-23T13:44:27.699Z,54.8
2018-06-23T13:45:17.238Z,54.7
2018-06-23T13:46:06.689Z,54.7
2018-06-23T13:46:57.381Z,54.6
2018-06-23T13:47:47.211Z,54.6
2018-06-23T13:48:37.740Z,54.6
2018-06-23T13:49:27.812Z,54.5
2018-06-23T13:50:18.134Z,54.4
2018-06-23T13:51:07.080Z,54.1
2018-06-23T13:51:57.209Z,53.8
2018-06-23T13:52:48.334Z,53.3
2018-06-23T13:53:38.152Z,52.6
2018-06-23T13:54:28.284Z,52.3
2018-06-23T13:55:18.001Z,52.1
2018-06-23T13:56:08.007Z,52.1
2018-06-23T13:56:58.137Z,52.1
2018-06-23T13:57:48.141Z,52.1
2018-06-23T14:00:18.676Z,51.9
2018-06-23T14:01:08.667Z,51.8
2018-06-23T14:01:58.712Z,51.8
2018-06-23T14:02:48.814Z,51.8
2018-06-23T14:03:38.569Z,51.8
2018-06-23T14:04:28.762Z,51.8
2018-06-23T14:05:18.242Z,51.8
2018-06-23T14:06:08.568Z,51.7
2018-06-23T14:06:58.161Z,51.7
2018-06-23T14:07:48.990Z,51.7
2018-06-23T14:08:39.021Z,51.6
2018-06-23T14:09:28.559Z,51.6
2018-06-23T14:10:18.945Z,51.5
2018-06-23T14:11:08.809Z,51.4
2018-06-23T14:11:59.002Z,51.4
2018-06-23T14:12:48.819Z,51.4
2018-06-23T14:13:39.139Z,51.4
2018-06-23T14:14:29.426Z,51.3
2018-06-23T14:15:19.217Z,51.3
2018-06-23T14:16:09.807Z,51.3
2018-06-23T14:16:59.021Z,51.2
2018-06-23T14:17:50.199Z,51.1
2018-06-23T14:18:39.839Z,51.1
2018-06-23T14:19:30.072Z,51.1
2018-06-23T14:20:20.134Z,51
2018-06-23T14:21:10.473Z,50.9
2018-06-23T14:22:00.277Z,50.8
2018-06-23T14:22:49.545Z,50.8
2018-06-23T14:23:40.630Z,50.7
2018-06-23T14:24:30.481Z,50.7